sensor_id;sensor_type;location;lat;lon;timestamp;pressure;altitude;pressure_sealevel;temperature;humidity
41202;BME280;26936;50.524;8.684;2023-01-26T00:01:39;100107.50;;;-0.33;100.00
41202;BME280;26936;50.524;8.684;2023-01-26T00:04:04;100112.97;;;-0.37;100.00
41202;BME280;26936;50.524;8.684;2023-01-26T00:06:29;100113.59;;;-0.43;100.00
41202;BME280;26936;50.524;8.684;2023-01-26T00:08:55;100109.94;;;-0.47;100.00
41202;BME280;26936;50.524;8.684;2023-01-26T00:11:25;100109.25;;;-0.44;100.00
41202;BME280;26936;50.524;8.684;2023-01-26T00:13:52;100104.06;;;-0.46;100.00
41202;BME280;26936;50.524;8.684;2023-01-26T00:16:18;100103.25;;;-0.46;100.00
41202;BME280;26936;50.524;8.684;2023-01-26T00:18:43;100093.50;;;-0.40;100.00
41202;BME280;26936;50.524;8.684;2023-01-26T00:21:14;100094.25;;;-0.43;100.00
41202;BME280;26936;50.524;8.684;2023-01-26T00:23:40;100098.50;;;-0.46;100.00
41202;BME280;26936;50.524;8.684;2023-01-26T00:26:08;100092.31;;;-0.39;100.00
41202;BME280;26936;50.524;8.684;2023-01-26T00:28:33;100089.88;;;-0.44;100.00
41202;BME280;26936;50.524;8.684;2023-01-26T00:31:06;100092.28;;;-0.43;100.00
41202;BME280;26936;50.524;8.684;2023-01-26T00:33:32;100098.75;;;-0.35;100.00
41202;BME280;26936;50.524;8.684;2023-01-26T00:35:57;100097.00;;;-0.43;100.00
41202;BME280;26936;50.524;8.684;2023-01-26T00:38:23;100096.47;;;-0.49;100.00
41202;BME280;26936;50.524;8.684;2023-01-26T00:40:48;100091.75;;;-0.48;100.00
41202;BME280;26936;50.524;8.684;2023-01-26T00:43:13;100090.94;;;-0.49;100.00
41202;BME280;26936;50.524;8.684;2023-01-26T00:45:39;100086.06;;;-0.55;100.00
41202;BME280;26936;50.524;8.684;2023-01-26T00:48:04;100082.78;;;-0.61;100.00
41202;BME280;26936;50.524;8.684;2023-01-26T00:50:30;100089.84;;;-0.63;100.00
41202;BME280;26936;50.524;8.684;2023-01-26T00:52:55;100092.78;;;-0.72;100.00
41202;BME280;26936;50.524;8.684;2023-01-26T00:55:21;100090.34;;;-0.77;100.00
41202;BME280;26936;50.524;8.684;2023-01-26T00:57:48;100086.47;;;-0.72;100.00
41202;BME280;26936;50.524;8.684;2023-01-26T01:00:13;100083.53;;;-0.79;100.00
41202;BME280;26936;50.524;8.684;2023-01-26T01:02:41;100081.88;;;-0.84;100.00
41202;BME280;26936;50.524;8.684;2023-01-26T01:05:07;100079.59;;;-0.78;100.00
41202;BME280;26936;50.524;8.684;2023-01-26T01:07:33;100081.72;;;-0.72;100.00
41202;BME280;26936;50.524;8.684;2023-01-26T01:09:58;100070.53;;;-0.79;100.00
41202;BME280;26936;50.524;8.684;2023-01-26T01:12:24;100072.75;;;-0.84;100.00
41202;BME280;26936;50.524;8.684;2023-01-26T01:14:50;100075.06;;;-0.86;100.00
41202;BME280;26936;50.524;8.684;2023-01-26T01:17:15;100071.88;;;-0.88;100.00
41202;BME280;26936;50.524;8.684;2023-01-26T01:19:41;100069.19;;;-0.85;100.00
41202;BME280;26936;50.524;8.684;2023-01-26T01:22:06;100067.22;;;-0.84;100.00
41202;BME280;26936;50.524;8.684;2023-01-26T01:24:32;100077.69;;;-0.93;100.00
41202;BME280;26936;50.524;8.684;2023-01-26T01:26:59;100081.47;;;-1.01;100.00
41202;BME280;26936;50.524;8.684;2023-01-26T01:29:24;100087.34;;;-1.03;100.00
41202;BME280;26936;50.524;8.684;2023-01-26T01:31:49;100085.19;;;-0.94;100.00
41202;BME280;26936;50.524;8.684;2023-01-26T01:34:15;100079.66;;;-0.94;100.00
41202;BME280;26936;50.524;8.684;2023-01-26T01:36:40;100081.47;;;-1.01;100.00
41202;BME280;26936;50.524;8.684;2023-01-26T01:39:05;100078.75;;;-0.98;100.00
41202;BME280;26936;50.524;8.684;2023-01-26T01:41:31;100080.81;;;-0.95;100.00
41202;BME280;26936;50.524;8.684;2023-01-26T01:44:16;100083.59;;;-0.95;100.00
41202;BME280;26936;50.524;8.684;2023-01-26T01:47:02;100077.69;;;-0.93;100.00
41202;BME280;26936;50.524;8.684;2023-01-26T01:49:32;100081.59;;;-0.94;100.00
41202;BME280;26936;50.524;8.684;2023-01-26T01:52:10;100079.28;;;-0.92;100.00
41202;BME280;26936;50.524;8.684;2023-01-26T01:54:41;100079.19;;;-0.96;100.00
41202;BME280;26936;50.524;8.684;2023-01-26T01:57:11;100072.06;;;-0.97;100.00
41202;BME280;26936;50.524;8.684;2023-01-26T01:59:45;100073.56;;;-0.99;100.00
41202;BME280;26936;50.524;8.684;2023-01-26T02:02:13;100071.91;;;-1.04;100.00
41202;BME280;26936;50.524;8.684;2023-01-26T02:04:38;100064.88;;;-1.01;100.00
41202;BME280;26936;50.524;8.684;2023-01-26T02:07:04;100054.00;;;-1.10;100.00
41202;BME280;26936;50.524;8.684;2023-01-26T02:09:32;100054.00;;;-1.10;100.00
41202;BME280;26936;50.524;8.684;2023-01-26T02:12:20;100057.56;;;-1.09;100.00
41202;BME280;26936;50.524;8.684;2023-01-26T02:14:49;100050.16;;;-1.05;100.00
41202;BME280;26936;50.524;8.684;2023-01-26T02:17:15;100048.47;;;-1.10;100.00
41202;BME280;26936;50.524;8.684;2023-01-26T02:24:57;100029.03;;;-1.13;100.00
41202;BME280;26936;50.524;8.684;2023-01-26T02:27:27;100030.25;;;-1.11;100.00
41202;BME280;26936;50.524;8.684;2023-01-26T02:29:53;100020.00;;;-1.10;100.00
41202;BME280;26936;50.524;8.684;2023-01-26T02:32:19;100015.22;;;-1.13;100.00
41202;BME280;26936;50.524;8.684;2023-01-26T02:34:44;100019.50;;;-1.16;100.00
41202;BME280;26936;50.524;8.684;2023-01-26T02:37:13;100017.97;;;-1.13;100.00
41202;BME280;26936;50.524;8.684;2023-01-26T02:39:58;100013.34;;;-1.09;100.00
41202;BME280;26936;50.524;8.684;2023-01-26T02:42:26;100003.97;;;-1.05;100.00
41202;BME280;26936;50.524;8.684;2023-01-26T02:45:05;100005.84;;;-1.09;100.00
41202;BME280;26936;50.524;8.684;2023-01-26T02:47:31;100005.09;;;-1.06;100.00
41202;BME280;26936;50.524;8.684;2023-01-26T02:49:56;100003.44;;;-1.10;100.00
41202;BME280;26936;50.524;8.684;2023-01-26T02:52:24;100005.69;;;-1.16;100.00
41202;BME280;26936;50.524;8.684;2023-01-26T02:54:50;100001.38;;;-1.13;100.00
41202;BME280;26936;50.524;8.684;2023-01-26T02:57:35;99996.91;;;-1.02;100.00
41202;BME280;26936;50.524;8.684;2023-01-26T03:00:05;99993.41;;;-0.99;100.00
41202;BME280;26936;50.524;8.684;2023-01-26T03:02:31;99997.06;;;-0.95;100.00
41202;BME280;26936;50.524;8.684;2023-01-26T03:04:56;99995.47;;;-0.96;100.00
41202;BME280;26936;50.524;8.684;2023-01-26T03:07:21;99989.94;;;-0.96;100.00
41202;BME280;26936;50.524;8.684;2023-01-26T03:09:47;99994.22;;;-0.99;100.00
41202;BME280;26936;50.524;8.684;2023-01-26T03:12:12;99993.84;;;-0.97;100.00
41202;BME280;26936;50.524;8.684;2023-01-26T03:14:37;99989.28;;;-0.90;100.00
41202;BME280;26936;50.524;8.684;2023-01-26T03:17:03;99990.00;;;-0.93;100.00
41202;BME280;26936;50.524;8.684;2023-01-26T03:19:28;99980.19;;;-0.90;100.00
41202;BME280;26936;50.524;8.684;2023-01-26T03:22:12;99980.28;;;-0.87;100.00
41202;BME280;26936;50.524;8.684;2023-01-26T03:24:56;99984.25;;;-0.84;100.00
41202;BME280;26936;50.524;8.684;2023-01-26T03:27:45;99985.72;;;-0.90;100.00
41202;BME280;26936;50.524;8.684;2023-01-26T03:30:12;99981.78;;;-0.89;100.00
41202;BME280;26936;50.524;8.684;2023-01-26T03:32:37;99985.63;;;-0.94;100.00
41202;BME280;26936;50.524;8.684;2023-01-26T03:35:03;99985.88;;;-0.83;100.00
41202;BME280;26936;50.524;8.684;2023-01-26T03:37:28;99981.22;;;-0.79;100.00
41202;BME280;26936;50.524;8.684;2023-01-26T03:40:02;99982.03;;;-0.79;100.00
41202;BME280;26936;50.524;8.684;2023-01-26T03:42:46;99973.28;;;-0.81;100.00
41202;BME280;26936;50.524;8.684;2023-01-26T03:45:30;99974.50;;;-0.78;100.00
41202;BME280;26936;50.524;8.684;2023-01-26T03:48:14;99968.47;;;-0.84;100.00
41202;BME280;26936;50.524;8.684;2023-01-26T03:50:58;99967.22;;;-0.86;100.00
41202;BME280;26936;50.524;8.684;2023-01-26T03:53:42;99967.22;;;-0.86;100.00
41202;BME280;26936;50.524;8.684;2023-01-26T03:56:26;99965.44;;;-0.79;100.00
41202;BME280;26936;50.524;8.684;2023-01-26T03:59:07;99965.44;;;-0.79;100.00
41202;BME280;26936;50.524;8.684;2023-01-26T04:01:45;99957.56;;;-0.77;100.00
41202;BME280;26936;50.524;8.684;2023-01-26T04:04:30;99960.34;;;-0.77;100.00
41202;BME280;26936;50.524;8.684;2023-01-26T04:07:14;99961.19;;;-0.73;100.00
41202;BME280;26936;50.524;8.684;2023-01-26T04:09:58;99955.88;;;-0.81;100.00
41202;BME280;26936;50.524;8.684;2023-01-26T04:12:23;99950.78;;;-0.79;100.00
41202;BME280;26936;50.524;8.684;2023-01-26T04:14:48;99948.84;;;-0.79;100.00
41202;BME280;26936;50.524;8.684;2023-01-26T04:17:32;99952.03;;;-0.77;100.00
41202;BME280;26936;50.524;8.684;2023-01-26T04:20:16;99952.75;;;-0.80;100.00
41202;BME280;26936;50.524;8.684;2023-01-26T04:23:00;99958.56;;;-0.85;100.00
41202;BME280;26936;50.524;8.684;2023-01-26T04:25:25;99955.22;;;-0.75;100.00
41202;BME280;26936;50.524;8.684;2023-01-26T04:27:51;99950.88;;;-0.76;100.00
41202;BME280;26936;50.524;8.684;2023-01-26T04:30:17;99947.75;;;-0.74;100.00
41202;BME280;26936;50.524;8.684;2023-01-26T04:32:43;99943.88;;;-0.70;100.00
41202;BME280;26936;50.524;8.684;2023-01-26T04:35:10;99943.09;;;-0.70;100.00
41202;BME280;26936;50.524;8.684;2023-01-26T04:37:35;99941.09;;;-0.70;100.00
41202;BME280;26936;50.524;8.684;2023-01-26T04:40:01;99939.88;;;-0.72;100.00
41202;BME280;26936;50.524;8.684;2023-01-26T04:42:26;99935.66;;;-0.66;100.00
41202;BME280;26936;50.524;8.684;2023-01-26T04:44:52;99942.00;;;-0.66;100.00
41202;BME280;26936;50.524;8.684;2023-01-26T04:47:18;99934.56;;;-0.62;100.00
41202;BME280;26936;50.524;8.684;2023-01-26T04:49:43;99944.75;;;-0.66;100.00
41202;BME280;26936;50.524;8.684;2023-01-26T04:52:09;99931.28;;;-0.67;100.00
41202;BME280;26936;50.524;8.684;2023-01-26T04:54:34;99944.84;;;-0.62;100.00
41202;BME280;26936;50.524;8.684;2023-01-26T04:56:59;99942.72;;;-0.69;100.00
41202;BME280;26936;50.524;8.684;2023-01-26T04:59:24;99940.66;;;-0.72;100.00
41202;BME280;26936;50.524;8.684;2023-01-26T05:01:50;99936.84;;;-0.67;100.00
41202;BME280;26936;50.524;8.684;2023-01-26T05:04:15;99941.03;;;-0.73;100.00
41202;BME280;26936;50.524;8.684;2023-01-26T05:06:40;99937.34;;;-0.81;100.00
41202;BME280;26936;50.524;8.684;2023-01-26T05:09:09;99928.22;;;-0.81;100.00
41202;BME280;26936;50.524;8.684;2023-01-26T05:11:34;99928.38;;;-0.93;100.00
41202;BME280;26936;50.524;8.684;2023-01-26T05:14:00;99923.28;;;-0.91;100.00
41202;BME280;26936;50.524;8.684;2023-01-26T05:16:25;99929.13;;;-0.96;100.00
41202;BME280;26936;50.524;8.684;2023-01-26T05:18:52;99936.44;;;-1.04;100.00
41202;BME280;26936;50.524;8.684;2023-01-26T05:21:17;99936.06;;;-1.02;100.00
41202;BME280;26936;50.524;8.684;2023-01-26T05:23:43;99944.38;;;-1.02;100.00
41202;BME280;26936;50.524;8.684;2023-01-26T05:26:08;99938.34;;;-1.08;100.00
41202;BME280;26936;50.524;8.684;2023-01-26T05:28:34;99935.31;;;-1.03;100.00
41202;BME280;26936;50.524;8.684;2023-01-26T05:30:59;99936.88;;;-1.02;100.00
41202;BME280;26936;50.524;8.684;2023-01-26T05:33:25;99946.84;;;-0.97;100.00
41202;BME280;26936;50.524;8.684;2023-01-26T05:35:51;99947.13;;;-1.02;100.00
41202;BME280;26936;50.524;8.684;2023-01-26T05:38:17;99942.06;;;-1.00;100.00
41202;BME280;26936;50.524;8.684;2023-01-26T05:40:42;99948.75;;;-1.01;100.00
41202;BME280;26936;50.524;8.684;2023-01-26T05:43:08;99949.81;;;-1.06;100.00
41202;BME280;26936;50.524;8.684;2023-01-26T05:45:34;99947.06;;;-1.06;100.00
41202;BME280;26936;50.524;8.684;2023-01-26T05:48:00;99950.53;;;-1.09;100.00
41202;BME280;26936;50.524;8.684;2023-01-26T05:50:25;99948.69;;;-1.05;100.00
41202;BME280;26936;50.524;8.684;2023-01-26T05:52:51;99946.03;;;-0.98;100.00
41202;BME280;26936;50.524;8.684;2023-01-26T05:55:16;99950.50;;;-0.93;100.00
41202;BME280;26936;50.524;8.684;2023-01-26T05:57:41;99942.22;;;-0.93;100.00
41202;BME280;26936;50.524;8.684;2023-01-26T06:00:08;99937.81;;;-0.94;100.00
41202;BME280;26936;50.524;8.684;2023-01-26T06:02:33;99946.19;;;-0.91;100.00
41202;BME280;26936;50.524;8.684;2023-01-26T06:04:58;99942.22;;;-0.93;100.00
41202;BME280;26936;50.524;8.684;2023-01-26T06:07:24;99952.38;;;-0.97;100.00
41202;BME280;26936;50.524;8.684;2023-01-26T06:09:50;99939.56;;;-1.05;100.00
41202;BME280;26936;50.524;8.684;2023-01-26T06:12:17;99939.28;;;-1.00;100.00
41202;BME280;26936;50.524;8.684;2023-01-26T06:14:43;99944.00;;;-1.01;100.00
41202;BME280;26936;50.524;8.684;2023-01-26T06:17:08;99947.06;;;-1.06;100.00
41202;BME280;26936;50.524;8.684;2023-01-26T06:19:33;99958.56;;;-1.04;100.00
41202;BME280;26936;50.524;8.684;2023-01-26T06:22:00;99953.13;;;-1.00;100.00
41202;BME280;26936;50.524;8.684;2023-01-26T06:24:25;99963.63;;;-1.06;100.00
41202;BME280;26936;50.524;8.684;2023-01-26T06:26:50;99953.31;;;-1.09;100.00
41202;BME280;26936;50.524;8.684;2023-01-26T06:29:16;99951.34;;;-1.08;100.00
41202;BME280;26936;50.524;8.684;2023-01-26T06:31:41;99951.34;;;-1.08;100.00
41202;BME280;26936;50.524;8.684;2023-01-26T06:34:07;99958.84;;;-1.09;100.00
41202;BME280;26936;50.524;8.684;2023-01-26T06:36:33;99960.19;;;-1.03;100.00
41202;BME280;26936;50.524;8.684;2023-01-26T06:38:58;99960.50;;;-1.04;100.00
41202;BME280;26936;50.524;8.684;2023-01-26T06:41:24;99963.91;;;-1.11;100.00
41202;BME280;26936;50.524;8.684;2023-01-26T06:43:49;99970.78;;;-1.05;100.00
41202;BME280;26936;50.524;8.684;2023-01-26T06:46:16;99973.91;;;-1.06;100.00
41202;BME280;26936;50.524;8.684;2023-01-26T06:48:42;99969.25;;;-1.02;100.00
41202;BME280;26936;50.524;8.684;2023-01-26T06:53:52;99975.50;;;-1.05;100.00
41202;BME280;26936;50.524;8.684;2023-01-26T06:56:19;99977.09;;;-1.04;100.00
41202;BME280;26936;50.524;8.684;2023-01-26T06:58:45;99975.78;;;-1.10;100.00
41202;BME280;26936;50.524;8.684;2023-01-26T07:01:23;99974.19;;;-1.11;100.00
41202;BME280;26936;50.524;8.684;2023-01-26T07:03:50;99979.72;;;-1.11;100.00
41202;BME280;26936;50.524;8.684;2023-01-26T07:06:16;99983.34;;;-1.07;100.00
41202;BME280;26936;50.524;8.684;2023-01-26T07:08:42;99977.91;;;-1.04;100.00
41202;BME280;26936;50.524;8.684;2023-01-26T07:11:09;99988.28;;;-1.16;100.00
41202;BME280;26936;50.524;8.684;2023-01-26T07:13:34;99985.09;;;-1.18;100.00
41202;BME280;26936;50.524;8.684;2023-01-26T07:16:01;99990.69;;;-1.15;100.00
41202;BME280;26936;50.524;8.684;2023-01-26T07:18:27;99992.28;;;-1.14;100.00
41202;BME280;26936;50.524;8.684;2023-01-26T07:20:52;99997.72;;;-1.17;100.00
41202;BME280;26936;50.524;8.684;2023-01-26T07:23:18;100001.66;;;-1.18;100.00
41202;BME280;26936;50.524;8.684;2023-01-26T07:25:43;100000.81;;;-1.22;100.00
41202;BME280;26936;50.524;8.684;2023-01-26T07:28:09;100005.59;;;-1.19;100.00
41202;BME280;26936;50.524;8.684;2023-01-26T07:30:35;100002.94;;;-1.16;100.00
41202;BME280;26936;50.524;8.684;2023-01-26T07:33:00;100008.63;;;-1.24;100.00
41202;BME280;26936;50.524;8.684;2023-01-26T07:35:25;100017.38;;;-1.22;100.00
41202;BME280;26936;50.524;8.684;2023-01-26T07:37:51;100020.69;;;-1.32;100.00
41202;BME280;26936;50.524;8.684;2023-01-26T07:40:16;100018.44;;;-1.27;100.00
41202;BME280;26936;50.524;8.684;2023-01-26T07:42:42;100018.16;;;-1.22;100.00
41202;BME280;26936;50.524;8.684;2023-01-26T07:45:07;100023.25;;;-1.24;100.00
41202;BME280;26936;50.524;8.684;2023-01-26T07:47:33;100022.56;;;-1.21;100.00
41202;BME280;26936;50.524;8.684;2023-01-26T07:50:00;100027.63;;;-1.23;100.00
41202;BME280;26936;50.524;8.684;2023-01-26T07:52:25;100034.25;;;-1.27;100.00
41202;BME280;26936;50.524;8.684;2023-01-26T07:54:50;100032.16;;;-1.30;100.00
41202;BME280;26936;50.524;8.684;2023-01-26T07:57:15;100036.72;;;-1.22;100.00
41202;BME280;26936;50.524;8.684;2023-01-26T07:59:41;100029.56;;;-1.23;100.00
41202;BME280;26936;50.524;8.684;2023-01-26T08:02:08;100036.00;;;-1.19;100.00
41202;BME280;26936;50.524;8.684;2023-01-26T08:04:34;100032.88;;;-1.18;100.00
41202;BME280;26936;50.524;8.684;2023-01-26T08:07:00;100027.53;;;-1.26;100.00
41202;BME280;26936;50.524;8.684;2023-01-26T08:09:25;100026.72;;;-1.27;100.00
41202;BME280;26936;50.524;8.684;2023-01-26T08:11:50;100027.16;;;-1.25;100.00
41202;BME280;26936;50.524;8.684;2023-01-26T08:14:15;100024.72;;;-1.46;100.00
41202;BME280;26936;50.524;8.684;2023-01-26T08:16:41;100025.59;;;-1.42;100.00
41202;BME280;26936;50.524;8.684;2023-01-26T08:19:06;100021.41;;;-1.35;100.00
41202;BME280;26936;50.524;8.684;2023-01-26T08:21:32;100030.75;;;-1.40;100.00
41202;BME280;26936;50.524;8.684;2023-01-26T08:23:57;100030.84;;;-1.37;100.00
41202;BME280;26936;50.524;8.684;2023-01-26T08:26:26;100034.88;;;-1.34;100.00
41202;BME280;26936;50.524;8.684;2023-01-26T08:28:51;100030.25;;;-1.46;100.00
41202;BME280;26936;50.524;8.684;2023-01-26T08:31:19;100028.97;;;-1.48;100.00
41202;BME280;26936;50.524;8.684;2023-01-26T08:33:49;100024.09;;;-1.39;100.00
41202;BME280;26936;50.524;8.684;2023-01-26T08:36:15;100024.88;;;-1.39;100.00
41202;BME280;26936;50.524;8.684;2023-01-26T08:38:42;100017.28;;;-1.42;100.00
41202;BME280;26936;50.524;8.684;2023-01-26T08:41:08;100027.25;;;-1.37;100.00
41202;BME280;26936;50.524;8.684;2023-01-26T08:43:34;100028.97;;;-1.32;100.00
41202;BME280;26936;50.524;8.684;2023-01-26T08:45:59;100032.63;;;-1.28;100.00
41202;BME280;26936;50.524;8.684;2023-01-26T08:48:25;100039.31;;;-1.29;100.00
41202;BME280;26936;50.524;8.684;2023-01-26T08:50:54;100036.47;;;-1.33;100.00
41202;BME280;26936;50.524;8.684;2023-01-26T08:53:20;100032.63;;;-1.28;99.97
41202;BME280;26936;50.524;8.684;2023-01-26T08:55:45;100035.75;;;-1.30;100.00
41202;BME280;26936;50.524;8.684;2023-01-26T08:58:11;100042.44;;;-1.31;100.00
41202;BME280;26936;50.524;8.684;2023-01-26T09:00:36;100042.25;;;-1.38;99.71
41202;BME280;26936;50.524;8.684;2023-01-26T09:03:04;100041.16;;;-1.33;99.96
41202;BME280;26936;50.524;8.684;2023-01-26T09:05:37;100036.19;;;-1.28;100.00
41202;BME280;26936;50.524;8.684;2023-01-26T09:08:03;100036.19;;;-1.28;100.00
41202;BME280;26936;50.524;8.684;2023-01-26T09:10:29;100032.88;;;-1.18;99.47
41202;BME280;26936;50.524;8.684;2023-01-26T09:12:56;100030.47;;;-1.19;99.77
41202;BME280;26936;50.524;8.684;2023-01-26T09:15:21;100027.06;;;-1.13;99.53
41202;BME280;26936;50.524;8.684;2023-01-26T09:17:48;100030.34;;;-1.07;98.94
41202;BME280;26936;50.524;8.684;2023-01-26T09:20:13;100039.28;;;-1.14;99.03
41202;BME280;26936;50.524;8.684;2023-01-26T09:22:39;100040.13;;;-1.29;97.71
41202;BME280;26936;50.524;8.684;2023-01-26T09:25:04;100031.63;;;-1.20;99.04
41202;BME280;26936;50.524;8.684;2023-01-26T09:27:30;100034.84;;;-1.18;98.18
41202;BME280;26936;50.524;8.684;2023-01-26T09:29:55;100032.16;;;-1.15;98.77
41202;BME280;26936;50.524;8.684;2023-01-26T09:32:21;100034.66;;;-1.10;98.76
41202;BME280;26936;50.524;8.684;2023-01-26T09:34:47;100039.44;;;-1.07;98.47
41202;BME280;26936;50.524;8.684;2023-01-26T09:37:12;100045.06;;;-1.03;97.92
41202;BME280;26936;50.524;8.684;2023-01-26T09:39:38;100038.97;;;-0.93;98.27
41202;BME280;26936;50.524;8.684;2023-01-26T09:42:24;100042.16;;;-0.91;97.85
41202;BME280;26936;50.524;8.684;2023-01-26T09:50:30;100027.06;;;-0.78;96.82
41202;BME280;26936;50.524;8.684;2023-01-26T09:53:18;100033.53;;;-0.90;96.38
41202;BME280;26936;50.524;8.684;2023-01-26T09:55:44;100025.91;;;-0.77;96.76
41202;BME280;26936;50.524;8.684;2023-01-26T09:58:14;100020.97;;;-0.68;96.90
41202;BME280;26936;50.524;8.684;2023-01-26T10:00:47;100027.38;;;-0.64;97.04
41202;BME280;26936;50.524;8.684;2023-01-26T10:03:36;100023.00;;;-0.65;96.48
41202;BME280;26936;50.524;8.684;2023-01-26T10:06:09;100032.34;;;-0.54;96.95
41202;BME280;26936;50.524;8.684;2023-01-26T10:08:38;100020.63;;;-0.48;96.67
41202;BME280;26936;50.524;8.684;2023-01-26T10:11:38;100024.91;;;-0.50;96.60
41202;BME280;26936;50.524;8.684;2023-01-26T10:14:18;100009.63;;;-0.44;96.29
41202;BME280;26936;50.524;8.684;2023-01-26T10:16:47;100008.16;;;-0.38;95.47
41202;BME280;26936;50.524;8.684;2023-01-26T10:19:24;100006.22;;;-0.38;96.35
41202;BME280;26936;50.524;8.684;2023-01-26T10:21:54;100012.31;;;-0.29;97.64
41202;BME280;26936;50.524;8.684;2023-01-26T10:24:22;100016.25;;;-0.30;97.63
41202;BME280;26936;50.524;8.684;2023-01-26T10:26:49;100013.22;;;-0.21;97.41
41202;BME280;26936;50.524;8.684;2023-01-26T10:29:16;100010.97;;;-0.16;97.10
41202;BME280;26936;50.524;8.684;2023-01-26T10:31:43;100007.09;;;-0.11;97.23
41202;BME280;26936;50.524;8.684;2023-01-26T10:34:17;100004.03;;;-0.06;95.69
41202;BME280;26936;50.524;8.684;2023-01-26T10:36:45;99997.66;;;-0.10;96.45
41202;BME280;26936;50.524;8.684;2023-01-26T10:39:15;100000.13;;;-0.05;96.73
41202;BME280;26936;50.524;8.684;2023-01-26T10:42:17;99995.72;;;-0.06;96.97
41202;BME280;26936;50.524;8.684;2023-01-26T10:44:42;99995.72;;;-0.06;97.55
41202;BME280;26936;50.524;8.684;2023-01-26T10:47:16;99999.19;;;0.10;97.87
41202;BME280;26936;50.524;8.684;2023-01-26T10:49:42;99990.84;;;0.07;97.15
41202;BME280;26936;50.524;8.684;2023-01-26T10:52:20;99990.03;;;0.06;97.52
41202;BME280;26936;50.524;8.684;2023-01-26T10:55:08;99984.66;;;0.17;98.21
41202;BME280;26936;50.524;8.684;2023-01-26T10:57:37;99978.72;;;0.15;97.81
41202;BME280;26936;50.524;8.684;2023-01-26T11:00:06;99976.84;;;0.22;97.52
41202;BME280;26936;50.524;8.684;2023-01-26T11:02:33;99978.75;;;0.18;98.16
41202;BME280;26936;50.524;8.684;2023-01-26T11:07:31;99980.00;;;0.21;98.98
41202;BME280;26936;50.524;8.684;2023-01-26T11:10:16;99975.22;;;0.18;99.32
41202;BME280;26936;50.524;8.684;2023-01-26T11:12:41;99965.78;;;0.22;98.78
41202;BME280;26936;50.524;8.684;2023-01-26T11:15:21;99969.00;;;0.24;99.58
41202;BME280;26936;50.524;8.684;2023-01-26T11:17:51;99963.75;;;0.19;99.65
41202;BME280;26936;50.524;8.684;2023-01-26T11:20:31;99963.38;;;0.21;99.44
41202;BME280;26936;50.524;8.684;2023-01-26T11:23:11;99957.16;;;0.27;99.78
41202;BME280;26936;50.524;8.684;2023-01-26T11:31:29;99947.97;;;0.23;100.00
41202;BME280;26936;50.524;8.684;2023-01-26T11:34:13;99950.03;;;0.26;100.00
41202;BME280;26936;50.524;8.684;2023-01-26T11:37:05;99939.63;;;0.20;100.00
41202;BME280;26936;50.524;8.684;2023-01-26T11:42:24;99943.69;;;0.26;100.00
41202;BME280;26936;50.524;8.684;2023-01-26T11:45:19;99936.97;;;0.27;100.00
41202;BME280;26936;50.524;8.684;2023-01-26T11:48:07;99933.44;;;0.30;100.00
41202;BME280;26936;50.524;8.684;2023-01-26T11:50:59;99931.41;;;0.27;100.00
41202;BME280;26936;50.524;8.684;2023-01-26T11:53:46;99935.31;;;0.22;100.00
41202;BME280;26936;50.524;8.684;2023-01-26T11:56:42;99927.06;;;0.26;100.00
41202;BME280;26936;50.524;8.684;2023-01-26T12:04:21;99909.03;;;0.13;100.00
41202;BME280;26936;50.524;8.684;2023-01-26T12:06:51;99908.66;;;0.14;100.00
41202;BME280;26936;50.524;8.684;2023-01-26T12:09:42;99907.97;;;0.21;100.00
41202;BME280;26936;50.524;8.684;2023-01-26T12:12:13;99898.13;;;0.23;100.00
41202;BME280;26936;50.524;8.684;2023-01-26T12:20:32;99900.44;;;0.44;100.00
41202;BME280;26936;50.524;8.684;2023-01-26T12:23:16;99899.00;;;0.53;100.00
41202;BME280;26936;50.524;8.684;2023-01-26T12:25:48;99888.03;;;0.60;100.00
41202;BME280;26936;50.524;8.684;2023-01-26T12:28:20;99885.94;;;0.54;100.00
41202;BME280;26936;50.524;8.684;2023-01-26T12:33:32;99880.72;;;0.49;99.92
41202;BME280;26936;50.524;8.684;2023-01-26T12:39:12;99875.84;;;0.68;100.00
41202;BME280;26936;50.524;8.684;2023-01-26T12:41:51;99876.22;;;0.67;100.00
41202;BME280;26936;50.524;8.684;2023-01-26T12:44:40;99872.66;;;0.66;100.00
41202;BME280;26936;50.524;8.684;2023-01-26T12:47:13;99859.13;;;0.61;99.67
41202;BME280;26936;50.524;8.684;2023-01-26T12:52:13;99860.38;;;0.67;99.62
41202;BME280;26936;50.524;8.684;2023-01-26T12:54:49;99852.97;;;0.75;99.84
41202;BME280;26936;50.524;8.684;2023-01-26T12:57:22;99856.63;;;0.82;100.00
41202;BME280;26936;50.524;8.684;2023-01-26T12:59:49;99860.97;;;0.83;100.00
41202;BME280;26936;50.524;8.684;2023-01-26T13:02:24;99857.00;;;0.81;98.42
41202;BME280;26936;50.524;8.684;2023-01-26T13:04:51;99851.19;;;0.89;98.74
41202;BME280;26936;50.524;8.684;2023-01-26T13:07:37;99855.25;;;0.99;97.86
41202;BME280;26936;50.524;8.684;2023-01-26T13:15:16;99845.22;;;0.87;98.85
41202;BME280;26936;50.524;8.684;2023-01-26T13:17:49;99840.75;;;0.79;99.77
41202;BME280;26936;50.524;8.684;2023-01-26T13:23:41;99839.63;;;0.84;100.00
41202;BME280;26936;50.524;8.684;2023-01-26T13:28:45;99836.84;;;0.84;100.00
41202;BME280;26936;50.524;8.684;2023-01-26T13:31:11;99841.19;;;0.81;100.00
41202;BME280;26936;50.524;8.684;2023-01-26T13:33:37;99832.44;;;0.79;100.00
41202;BME280;26936;50.524;8.684;2023-01-26T13:36:12;99832.00;;;0.77;100.00
41202;BME280;26936;50.524;8.684;2023-01-26T13:38:43;99838.81;;;0.83;100.00
41202;BME280;26936;50.524;8.684;2023-01-26T13:41:17;99830.78;;;0.75;100.00
41202;BME280;26936;50.524;8.684;2023-01-26T13:44:03;99831.19;;;0.73;100.00
41202;BME280;26936;50.524;8.684;2023-01-26T13:46:44;99837.44;;;0.70;100.00
41202;BME280;26936;50.524;8.684;2023-01-26T13:49:26;99844.44;;;0.61;100.00
41202;BME280;26936;50.524;8.684;2023-01-26T13:52:01;99848.47;;;0.63;100.00
41202;BME280;26936;50.524;8.684;2023-01-26T13:54:27;99845.53;;;0.53;100.00
41202;BME280;26936;50.524;8.684;2023-01-26T13:57:19;99847.16;;;0.54;100.00
41202;BME280;26936;50.524;8.684;2023-01-26T13:59:49;99845.59;;;0.56;100.00